Time;durP1;ratioP1;P1;durP2;ratioP2;P2;SDS_P1;SDS_P2;PMS_P1;PMS_P2;Temp;Humidity;BMP_temperature;BMP_pressure;BME280_temperature;BME280_humidity;BME280_pressure;Samples;Min_cycle;Max_cycle;Signal;HPM_P1;HPM_P2
2023/10/19 00:01:28;;;;;;;0.98;0.82;;;19.80;78.10;;;;;;6042081;22;45405;-58
2023/10/19 00:03:56;;;;;;;1.08;0.98;;;19.80;78.10;;;;;;6049888;22;45460;-58
2023/10/19 00:06:41;;;;;;;1.50;0.90;;;19.80;78.10;;;;;;6060432;22;46306;-58
2023/10/19 00:12:17;;;;;;;1.58;0.90;;;19.80;78.00;;;;;;6052203;22;45321;-58
2023/10/19 00:15:04;;;;;;;1.88;0.90;;;19.80;78.10;;;;;;6069024;22;44795;-58
2023/10/19 00:17:39;;;;;;;1.40;0.80;;;19.80;78.00;;;;;;6067996;22;45925;-58
2023/10/19 00:22:58;;;;;;;1.25;0.82;;;19.80;78.10;;;;;;6039701;22;45214;-58
2023/10/19 00:25:24;;;;;;;0.95;0.70;;;19.80;78.20;;;;;;6038408;22;45191;-58
2023/10/19 00:31:33;;;;;;;1.30;0.70;;;19.80;78.10;;;;;;6000612;22;45212;-57
2023/10/19 00:34:53;;;;;;;0.68;0.68;;;19.80;78.10;;;;;;6057888;22;44911;-58
2023/10/19 00:37:42;;;;;;;0.98;0.75;;;19.80;78.10;;;;;;6072271;22;45156;-58
2023/10/19 00:46:31;;;;;;;1.10;0.95;;;19.80;78.10;;;;;;6061035;22;45463;-58
2023/10/19 00:49:38;;;;;;;1.70;0.95;;;19.80;78.10;;;;;;6048079;22;45186;-57
2023/10/19 00:52:23;;;;;;;1.63;1.00;;;19.80;78.10;;;;;;6071060;22;46453;-58
2023/10/19 00:55:05;;;;;;;1.08;0.90;;;19.80;78.10;;;;;;6129466;22;45094;-57
2023/10/19 00:58:09;;;;;;;1.00;0.82;;;19.80;78.10;;;;;;6063258;22;45002;-57
2023/10/19 01:00:59;;;;;;;1.10;1.00;;;19.80;78.10;;;;;;6048451;22;45201;-57
2023/10/19 01:03:39;;;;;;;1.77;1.10;;;19.80;78.10;;;;;;6034760;22;46176;-57
2023/10/19 01:06:36;;;;;;;1.25;0.73;;;19.80;78.10;;;;;;6111946;22;44848;-57
2023/10/19 01:12:38;;;;;;;1.25;0.95;;;19.80;78.10;;;;;;6040620;22;45316;-57
2023/10/19 01:15:29;;;;;;;0.98;0.82;;;19.80;78.10;;;;;;6058274;22;46407;-57
2023/10/19 01:18:10;;;;;;;1.27;1.02;;;19.80;78.10;;;;;;6032350;22;45417;-57
2023/10/19 01:23:30;;;;;;;0.60;0.60;;;19.80;79.10;;;;;;6046059;22;45371;-57
2023/10/19 01:26:18;;;;;;;0.82;0.80;;;19.80;79.40;;;;;;6046098;22;45770;-57
2023/10/19 01:29:13;;;;;;;2.10;0.90;;;19.80;79.20;;;;;;6043188;22;45372;-57
2023/10/19 01:32:15;;;;;;;1.23;0.80;;;19.80;79.90;;;;;;6041948;22;45120;-57
2023/10/19 01:35:00;;;;;;;1.00;0.80;;;19.80;80.00;;;;;;6047268;22;45171;-57
2023/10/19 01:37:26;;;;;;;1.35;0.90;;;19.80;81.40;;;;;;6057432;22;47473;-57
2023/10/19 01:40:06;;;;;;;0.70;0.70;;;19.80;80.10;;;;;;6039813;22;45658;-57
2023/10/19 01:43:06;;;;;;;0.90;0.80;;;19.80;80.50;;;;;;6068305;22;45294;-57
2023/10/19 01:46:04;;;;;;;1.27;1.00;;;19.70;80.60;;;;;;6059243;22;44867;-57
2023/10/19 01:48:35;;;;;;;1.25;0.93;;;19.70;80.40;;;;;;6071253;22;45389;-57
2023/10/19 01:51:22;;;;;;;1.38;1.00;;;19.80;81.00;;;;;;6042969;22;45391;-57
2023/10/19 01:54:05;;;;;;;2.45;0.80;;;19.80;81.20;;;;;;6053666;22;45304;-57
2023/10/19 01:57:05;;;;;;;1.75;0.77;;;19.70;80.90;;;;;;6068783;22;45148;-57
2023/10/19 01:59:45;;;;;;;1.45;1.02;;;19.70;81.30;;;;;;6069842;22;45453;-58
2023/10/19 02:02:23;;;;;;;0.80;0.80;;;19.70;80.80;;;;;;6053598;22;45238;-57
2023/10/19 02:05:15;;;;;;;2.00;1.25;;;19.80;79.80;;;;;;6034762;22;44982;-57
2023/10/19 02:08:04;;;;;;;1.00;0.90;;;19.80;79.70;;;;;;6049993;22;45452;-58
2023/10/19 02:17:25;;;;;;;3.22;1.20;;;19.80;78.70;;;;;;6070973;22;45099;-58
2023/10/19 02:20:24;;;;;;;1.27;1.10;;;19.80;78.80;;;;;;6057005;22;45213;-58
2023/10/19 02:23:22;;;;;;;0.88;0.88;;;19.80;78.50;;;;;;6059447;22;47426;-58
2023/10/19 02:26:07;;;;;;;0.82;0.77;;;19.80;78.20;;;;;;6061675;22;45463;-58
2023/10/19 02:28:37;;;;;;;1.58;1.13;;;19.80;78.10;;;;;;6087716;22;45402;-58
2023/10/19 02:31:37;;;;;;;1.88;1.02;;;19.90;78.30;;;;;;6061347;22;45133;-58
2023/10/19 02:34:50;;;;;;;1.65;1.15;;;19.90;79.10;;;;;;6063107;22;47109;-58
2023/10/19 02:37:41;;;;;;;2.25;1.10;;;19.80;78.20;;;;;;6053253;22;45177;-58
2023/10/19 02:40:23;;;;;;;2.60;1.08;;;19.90;78.80;;;;;;6051111;22;45300;-58
2023/10/19 02:43:23;;;;;;;1.10;1.00;;;19.90;78.40;;;;;;6073714;22;45269;-58
2023/10/19 02:46:23;;;;;;;2.40;1.27;;;19.90;79.00;;;;;;6039689;22;45429;-58
2023/10/19 02:49:20;;;;;;;2.45;1.10;;;19.80;78.70;;;;;;6057267;22;45212;-58
2023/10/19 02:51:47;;;;;;;1.70;1.05;;;19.90;78.50;;;;;;6063368;22;45283;-58
2023/10/19 02:54:36;;;;;;;1.50;1.08;;;19.90;78.20;;;;;;6062184;22;45292;-58
2023/10/19 02:57:20;;;;;;;1.52;0.90;;;19.90;78.70;;;;;;6062570;22;46140;-58
2023/10/19 02:59:47;;;;;;;1.88;1.10;;;19.90;79.20;;;;;;6059882;22;45292;-58
2023/10/19 03:02:17;;;;;;;1.10;0.85;;;19.90;79.80;;;;;;6070070;22;45040;-58
2023/10/19 03:05:19;;;;;;;1.40;1.02;;;19.90;80.80;;;;;;6089215;22;45168;-58
2023/10/19 03:07:45;;;;;;;1.10;1.00;;;19.80;81.00;;;;;;6055176;22;46885;-58
2023/10/19 03:10:41;;;;;;;0.98;0.80;;;19.80;81.80;;;;;;6081979;22;45231;-57
2023/10/19 03:13:49;;;;;;;1.50;0.90;;;19.80;82.50;;;;;;6064287;22;45342;-58
2023/10/19 03:16:47;;;;;;;1.17;0.90;;;19.80;83.80;;;;;;6090115;22;45389;-58
2023/10/19 03:23:00;;;;;;;1.63;0.90;;;19.80;82.90;;;;;;6048259;22;44855;-58
2023/10/19 03:28:12;;;;;;;0.93;0.85;;;19.80;82.10;;;;;;6078685;22;45120;-58
2023/10/19 03:30:59;;;;;;;1.42;0.70;;;19.80;81.90;;;;;;6040231;22;45231;-58
2023/10/19 03:33:28;;;;;;;1.10;1.00;;;19.80;81.40;;;;;;6055829;22;45333;-58
2023/10/19 03:35:56;;;;;;;1.52;1.17;;;19.80;81.50;;;;;;6069765;22;45342;-58
2023/10/19 03:38:40;;;;;;;1.48;1.00;;;19.80;81.70;;;;;;6080155;22;45213;-58
2023/10/19 03:41:13;;;;;;;1.65;1.20;;;19.90;81.80;;;;;;6060087;22;45904;-58
2023/10/19 03:43:43;;;;;;;1.33;1.05;;;19.90;81.50;;;;;;6058510;22;45145;-58
2023/10/19 03:46:37;;;;;;;1.17;1.02;;;19.90;81.50;;;;;;6054027;22;45291;-58
2023/10/19 03:49:36;;;;;;;1.02;0.93;;;19.90;84.00;;;;;;6060125;22;45285;-58
2023/10/19 03:52:22;;;;;;;2.03;1.00;;;19.80;86.90;;;;;;6058109;22;46209;-58
2023/10/19 03:55:11;;;;;;;1.35;0.82;;;19.80;88.50;;;;;;6044623;22;45202;-58
2023/10/19 03:57:46;;;;;;;1.70;0.80;;;19.80;88.60;;;;;;6060971;22;44843;-58
2023/10/19 04:00:48;;;;;;;1.05;0.82;;;19.80;89.60;;;;;;6069086;22;45017;-58
2023/10/19 04:03:36;;;;;;;0.82;0.70;;;19.80;90.20;;;;;;6057800;22;46376;-59
2023/10/19 04:06:24;;;;;;;0.85;0.70;;;19.80;90.40;;;;;;6056014;22;45096;-58
2023/10/19 04:11:48;;;;;;;1.60;1.00;;;19.80;90.70;;;;;;6051852;22;45092;-58
2023/10/19 04:14:48;;;;;;;1.42;0.85;;;19.80;90.90;;;;;;6063205;22;46458;-58
2023/10/19 04:17:16;;;;;;;0.65;0.65;;;19.80;90.90;;;;;;6062225;22;45033;-57
2023/10/19 04:20:08;;;;;;;0.90;0.80;;;19.80;90.00;;;;;;6065631;22;45300;-56
2023/10/19 04:22:54;;;;;;;1.15;1.02;;;19.80;89.80;;;;;;6021462;22;45420;-56
2023/10/19 04:25:34;;;;;;;1.42;1.20;;;19.80;88.40;;;;;;6064979;22;47142;-57
2023/10/19 04:28:38;;;;;;;1.70;1.15;;;19.80;86.10;;;;;;6043354;22;45458;-57
2023/10/19 04:31:08;;;;;;;1.40;0.98;;;19.80;84.00;;;;;;6054330;22;45368;-57
2023/10/19 04:33:47;;;;;;;3.42;1.20;;;19.80;82.80;;;;;;6055577;22;45327;-57
2023/10/19 04:36:36;;;;;;;1.92;1.20;;;19.70;81.50;;;;;;6085889;22;46684;-57
2023/10/19 04:39:24;;;;;;;1.08;0.95;;;19.70;80.90;;;;;;6066685;22;45299;-57
2023/10/19 04:41:55;;;;;;;0.98;0.80;;;19.70;80.00;;;;;;6063368;22;45340;-56
2023/10/19 04:44:53;;;;;;;1.58;1.17;;;19.70;79.80;;;;;;6054636;22;45367;-56
2023/10/19 04:47:20;;;;;;;1.50;1.10;;;19.70;79.70;;;;;;6052215;22;46620;-55
2023/10/19 04:49:47;;;;;;;1.25;0.93;;;19.70;80.50;;;;;;6060621;22;45225;-56
2023/10/19 04:52:42;;;;;;;1.55;0.90;;;19.70;82.40;;;;;;6058493;22;45158;-55
2023/10/19 04:55:09;;;;;;;1.65;0.90;;;19.70;83.70;;;;;;6089922;22;45152;-56
2023/10/19 04:57:36;;;;;;;1.23;0.82;;;19.70;85.30;;;;;;6069802;22;46485;-56
2023/10/19 05:00:13;;;;;;;0.82;0.82;;;19.70;85.30;;;;;;6066121;22;45126;-56
2023/10/19 05:02:46;;;;;;;1.65;0.90;;;19.70;86.10;;;;;;6055433;22;45256;-56
2023/10/19 05:05:17;;;;;;;1.15;0.80;;;19.70;86.70;;;;;;6050834;22;45368;-56
2023/10/19 05:08:11;;;;;;;1.20;0.73;;;19.70;86.10;;;;;;6086776;22;46653;-56
2023/10/19 05:11:07;;;;;;;1.30;0.85;;;19.70;86.90;;;;;;6060538;22;45076;-56
2023/10/19 05:13:45;;;;;;;1.25;0.70;;;19.70;87.20;;;;;;6065188;22;45386;-56
2023/10/19 05:16:13;;;;;;;1.38;0.90;;;19.70;86.30;;;;;;6053315;22;45335;-57
2023/10/19 05:18:40;;;;;;;0.98;0.88;;;19.70;87.70;;;;;;6042526;22;45621;-56
2023/10/19 05:21:06;;;;;;;1.25;0.90;;;19.70;88.00;;;;;;6098181;22;45236;-57
2023/10/19 05:24:00;;;;;;;1.33;1.00;;;19.80;86.40;;;;;;6076185;22;45217;-57
2023/10/19 05:26:34;;;;;;;0.98;0.80;;;19.80;87.10;;;;;;6044477;22;45247;-57
2023/10/19 05:32:41;;;;;;;1.50;0.95;;;19.80;86.40;;;;;;6017430;22;45409;-57
2023/10/19 05:35:12;;;;;;;1.75;1.25;;;19.80;86.20;;;;;;6050941;22;45005;-57
2023/10/19 05:38:10;;;;;;;1.45;0.95;;;19.80;86.50;;;;;;6085799;22;45246;-57
2023/10/19 05:40:38;;;;;;;0.95;0.80;;;19.80;87.00;;;;;;6078127;22;45270;-57
2023/10/19 05:43:07;;;;;;;1.23;1.13;;;19.80;87.50;;;;;;6053087;22;45140;-57
2023/10/19 05:45:58;;;;;;;1.60;0.90;;;19.80;86.30;;;;;;6102263;22;45319;-56
2023/10/19 05:48:27;;;;;;;1.33;1.10;;;19.80;87.20;;;;;;6053217;22;45047;-57
2023/10/19 05:51:26;;;;;;;1.42;0.90;;;19.80;86.70;;;;;;6072671;22;47251;-55
2023/10/19 05:53:54;;;;;;;1.77;0.90;;;19.80;87.00;;;;;;6056074;22;45057;-55
2023/10/19 06:00:07;;;;;;;1.25;0.90;;;19.80;88.00;;;;;;6016317;22;45645;-56
2023/10/19 06:02:51;;;;;;;0.90;0.80;;;19.80;87.70;;;;;;6056579;22;47396;-56
2023/10/19 06:05:34;;;;;;;1.70;1.10;;;19.80;87.90;;;;;;6037969;22;45219;-56
2023/10/19 06:08:23;;;;;;;1.17;0.98;;;19.80;88.20;;;;;;6091540;22;45247;-56
2023/10/19 06:10:52;;;;;;;1.63;0.82;;;19.80;89.20;;;;;;6073152;22;45185;-57
2023/10/19 06:13:33;;;;;;;1.33;0.80;;;19.80;89.80;;;;;;6066212;22;46152;-57
2023/10/19 06:16:29;;;;;;;1.10;0.68;;;19.80;89.80;;;;;;6063435;22;45237;-57
2023/10/19 06:18:59;;;;;;;1.02;0.85;;;19.80;90.00;;;;;;6053569;22;45292;-57
2023/10/19 06:21:52;;;;;;;1.40;0.80;;;19.80;90.10;;;;;;6062604;22;45140;-57
2023/10/19 06:24:20;;;;;;;0.70;0.70;;;19.80;90.20;;;;;;6070229;22;45760;-57
2023/10/19 06:26:48;;;;;;;1.15;0.70;;;19.80;90.10;;;;;;6073167;22;45183;-56
2023/10/19 06:29:32;;;;;;;1.55;0.98;;;19.80;90.00;;;;;;6048388;22;45273;-57
2023/10/19 06:31:59;;;;;;;0.95;0.80;;;19.80;89.90;;;;;;6043231;22;45367;-57
2023/10/19 06:34:27;;;;;;;1.52;0.95;;;19.80;90.10;;;;;;6068740;22;45587;-57
2023/10/19 06:37:16;;;;;;;2.42;1.10;;;19.80;90.00;;;;;;6046280;22;45274;-56
2023/10/19 06:39:58;;;;;;;1.48;0.95;;;19.80;89.80;;;;;;6038813;22;45280;-56
2023/10/19 06:43:03;;;;;;;1.83;0.95;;;19.80;89.60;;;;;;6057071;22;45166;-56
2023/10/19 06:45:30;;;;;;;1.08;0.80;;;19.80;89.00;;;;;;6031688;22;47087;-57
2023/10/19 06:48:00;;;;;;;0.85;0.77;;;19.80;89.10;;;;;;6059006;22;45106;-58
2023/10/19 06:50:52;;;;;;;1.42;0.85;;;19.80;90.00;;;;;;6058554;22;44849;-58
2023/10/19 06:53:21;;;;;;;3.00;1.20;;;19.80;89.60;;;;;;6070615;22;44842;-58
2023/10/19 06:55:48;;;;;;;1.00;0.90;;;19.80;89.60;;;;;;6049210;22;47482;-58
2023/10/19 06:58:28;;;;;;;1.17;0.80;;;19.80;89.80;;;;;;6080888;22;45387;-58
2023/10/19 07:01:31;;;;;;;1.55;0.90;;;19.80;89.80;;;;;;6064834;22;45224;-58
2023/10/19 07:04:10;;;;;;;1.38;0.90;;;19.80;89.70;;;;;;6051828;22;45092;-58
2023/10/19 07:06:38;;;;;;;1.05;0.70;;;19.90;89.80;;;;;;6050241;22;45234;-58
2023/10/19 07:09:34;;;;;;;0.88;0.70;;;19.90;89.40;;;;;;6067734;22;45258;-58
2023/10/19 07:12:11;;;;;;;1.40;0.80;;;19.90;89.60;;;;;;6070694;22;44991;-58
2023/10/19 07:14:41;;;;;;;1.20;0.88;;;19.90;89.80;;;;;;6057374;22;45286;-58
2023/10/19 07:17:41;;;;;;;2.25;1.02;;;19.80;90.00;;;;;;6033778;22;46681;-58
2023/10/19 07:20:25;;;;;;;1.27;0.82;;;19.90;90.30;;;;;;6058020;22;45025;-58
2023/10/19 07:23:18;;;;;;;0.70;0.63;;;19.80;90.50;;;;;;6057176;22;45147;-58
2023/10/19 07:29:19;;;;;;;2.80;0.65;;;19.90;90.60;;;;;;6008788;22;45738;-58
2023/10/19 07:32:06;;;;;;;1.35;0.80;;;19.80;90.70;;;;;;6054555;22;45476;-58
2023/10/19 07:34:58;;;;;;;0.82;0.50;;;19.80;90.90;;;;;;6068389;22;44877;-58
2023/10/19 07:37:38;;;;;;;1.75;0.80;;;19.80;90.90;;;;;;6049564;22;45076;-58
2023/10/19 07:40:13;;;;;;;0.90;0.80;;;19.80;91.10;;;;;;6118844;22;47534;-58
2023/10/19 07:43:00;;;;;;;0.80;0.65;;;19.80;90.90;;;;;;6038776;22;45160;-58
2023/10/19 07:49:03;;;;;;;0.93;0.73;;;19.90;90.80;;;;;;5998787;22;45037;-58
2023/10/19 07:51:52;;;;;;;0.88;0.70;;;19.90;90.70;;;;;;6067255;22;46587;-58
2023/10/19 07:54:36;;;;;;;0.90;0.75;;;19.90;90.80;;;;;;6069019;22;45464;-59
2023/10/19 07:57:06;;;;;;;1.67;0.75;;;19.90;90.50;;;;;;6041626;22;45188;-59
2023/10/19 07:59:42;;;;;;;1.30;0.60;;;19.90;91.00;;;;;;6064239;22;45307;-58
2023/10/19 08:02:09;;;;;;;1.20;0.60;;;19.90;90.80;;;;;;6046189;22;46337;-58
2023/10/19 08:04:55;;;;;;;1.52;0.82;;;19.90;91.10;;;;;;6086163;22;45215;-58
2023/10/19 08:07:28;;;;;;;1.17;0.77;;;19.90;91.20;;;;;;6081758;22;45302;-58
2023/10/19 08:09:58;;;;;;;1.33;0.80;;;19.90;91.10;;;;;;6049431;22;45331;-58
2023/10/19 08:12:27;;;;;;;0.60;0.57;;;19.90;91.00;;;;;;6050709;22;47654;-56
2023/10/19 08:15:04;;;;;;;1.05;0.70;;;19.90;91.20;;;;;;6059412;22;45219;-57
2023/10/19 08:17:53;;;;;;;1.00;0.77;;;19.90;91.40;;;;;;6067575;22;45320;-57
2023/10/19 08:20:30;;;;;;;1.35;0.90;;;19.90;91.40;;;;;;6050136;22;45112;-57
2023/10/19 08:23:27;;;;;;;1.45;0.70;;;19.90;91.80;;;;;;6052480;22;45224;-57
2023/10/19 08:26:15;;;;;;;1.73;0.90;;;19.90;91.70;;;;;;6071516;22;45220;-58
2023/10/19 08:28:51;;;;;;;0.73;0.60;;;19.90;92.10;;;;;;6059646;22;45790;-58
2023/10/19 08:31:19;;;;;;;0.82;0.57;;;19.90;92.30;;;;;;6060434;22;45256;-58
2023/10/19 08:34:04;;;;;;;1.20;0.82;;;19.90;92.40;;;;;;6056716;22;46833;-58
2023/10/19 08:36:36;;;;;;;1.38;0.70;;;19.90;92.30;;;;;;6078169;22;45153;-58
2023/10/19 08:39:05;;;;;;;1.60;0.80;;;19.90;93.00;;;;;;6085044;22;45315;-58
2023/10/19 08:41:53;;;;;;;1.05;0.47;;;19.90;92.50;;;;;;6053209;22;45754;-58
2023/10/19 08:44:21;;;;;;;0.85;0.60;;;19.90;92.70;;;;;;6042098;22;45228;-58
2023/10/19 08:46:51;;;;;;;0.70;0.70;;;19.80;92.80;;;;;;6061276;22;45231;-58
2023/10/19 08:55:44;;;;;;;0.90;0.70;;;19.90;93.20;;;;;;6051791;22;44960;-58
2023/10/19 08:58:11;;;;;;;1.08;0.60;;;19.90;92.60;;;;;;6089103;22;45000;-58
2023/10/19 09:00:56;;;;;;;0.75;0.73;;;19.90;92.90;;;;;;6049065;22;45247;-58
2023/10/19 09:03:40;;;;;;;0.75;0.63;;;19.90;93.00;;;;;;6067105;22;45224;-58
2023/10/19 09:06:42;;;;;;;0.85;0.75;;;19.90;92.90;;;;;;6058272;22;46770;-58
2023/10/19 09:09:16;;;;;;;1.00;0.57;;;19.90;93.00;;;;;;6067796;22;45430;-58
2023/10/19 09:12:25;;;;;;;1.48;0.60;;;19.90;92.80;;;;;;6041224;22;45302;-58
2023/10/19 09:15:33;;;;;;;1.20;0.80;;;19.90;92.70;;;;;;6069754;22;45189;-58
2023/10/19 09:18:17;;;;;;;1.33;0.70;;;19.90;93.20;;;;;;6074917;22;46549;-58
2023/10/19 09:21:07;;;;;;;2.22;0.70;;;20.00;93.60;;;;;;6056640;22;45181;-58
2023/10/19 09:23:51;;;;;;;0.90;0.70;;;20.00;93.70;;;;;;6031687;22;45127;-58
2023/10/19 09:26:31;;;;;;;1.73;0.80;;;20.00;93.00;;;;;;6081695;22;45002;-58
2023/10/19 09:29:19;;;;;;;1.27;0.80;;;20.00;93.40;;;;;;6053081;22;45298;-58
2023/10/19 09:32:08;;;;;;;1.92;0.75;;;20.00;93.40;;;;;;6060335;22;45693;-58
2023/10/19 09:35:04;;;;;;;1.25;0.50;;;20.00;93.90;;;;;;6058454;22;45289;-58
2023/10/19 09:37:40;;;;;;;0.77;0.60;;;20.00;94.10;;;;;;6047517;22;45383;-58
2023/10/19 09:40:12;;;;;;;1.05;0.77;;;20.00;94.30;;;;;;6078242;22;45263;-58
2023/10/19 09:42:46;;;;;;;0.60;0.50;;;19.90;94.50;;;;;;6088535;22;45058;-58
2023/10/19 09:45:24;;;;;;;1.33;0.93;;;19.90;94.80;;;;;;6043418;22;45147;-58
2023/10/19 09:48:16;;;;;;;0.80;0.50;;;19.90;95.10;;;;;;6068229;22;45459;-58
2023/10/19 09:50:55;;;;;;;0.60;0.57;;;19.90;95.50;;;;;;6067386;22;45800;-58
2023/10/19 09:53:35;;;;;;;1.17;0.50;;;19.90;95.30;;;;;;6060507;22;45329;-58
2023/10/19 09:56:27;;;;;;;0.63;0.40;;;19.90;95.50;;;;;;6077912;22;45164;-58
2023/10/19 10:02:34;;;;;;;1.88;0.65;;;19.90;95.50;;;;;;6036695;22;45277;-57
2023/10/19 10:05:48;;;;;;;1.90;0.70;;;20.00;95.50;;;;;;6063785;22;45311;-57
2023/10/19 10:08:45;;;;;;;0.40;0.40;;;20.00;95.70;;;;;;6005821;22;45251;-56
2023/10/19 10:11:25;;;;;;;1.08;0.50;;;19.90;96.10;;;;;;6049099;22;45175;-57
2023/10/19 10:14:25;;;;;;;1.13;0.55;;;20.00;96.40;;;;;;6064360;22;45839;-57
2023/10/19 10:17:30;;;;;;;2.10;0.45;;;20.00;96.50;;;;;;6090007;22;45054;-58
2023/10/19 10:23:59;;;;;;;0.57;0.40;;;20.00;96.50;;;;;;5920152;22;44943;-57
2023/10/19 10:30:20;;;;;;;0.98;0.63;;;20.10;96.70;;;;;;6014003;22;45312;-56
2023/10/19 10:36:59;;;;;;;1.25;0.50;;;20.10;96.50;;;;;;6053194;22;45057;-58
2023/10/19 10:40:01;;;;;;;1.95;0.63;;;20.10;96.60;;;;;;5953102;22;46090;-58
2023/10/19 10:42:28;;;;;;;0.75;0.40;;;20.10;96.70;;;;;;6056773;22;45077;-58
2023/10/19 10:45:30;;;;;;;0.60;0.32;;;20.10;96.50;;;;;;6078492;22;45318;-58
2023/10/19 10:48:25;;;;;;;0.77;0.50;;;20.10;96.80;;;;;;6051966;22;45249;-58
2023/10/19 10:51:19;;;;;;;2.58;0.50;;;20.10;96.80;;;;;;6060273;22;45145;-58
2023/10/19 10:54:14;;;;;;;0.80;0.40;;;20.10;96.80;;;;;;6067390;22;45256;-58
2023/10/19 10:56:55;;;;;;;2.13;0.57;;;20.10;96.90;;;;;;6045763;22;45100;-59
2023/10/19 10:59:22;;;;;;;2.00;0.73;;;20.10;96.90;;;;;;6030582;22;45348;-58
2023/10/19 11:01:49;;;;;;;1.15;0.50;;;20.10;96.90;;;;;;6114161;22;46150;-59
2023/10/19 11:05:19;;;;;;;0.98;0.50;;;20.00;96.90;;;;;;6053446;22;45115;-58
2023/10/19 11:08:20;;;;;;;2.38;0.60;;;20.10;96.80;;;;;;6075531;22;45251;-58
2023/10/19 11:10:48;;;;;;;0.98;0.47;;;20.10;97.00;;;;;;6050720;22;45561;-58
2023/10/19 11:13:35;;;;;;;1.00;0.57;;;20.10;97.00;;;;;;6038093;22;45402;-58
2023/10/19 11:19:22;;;;;;;1.38;0.55;;;20.10;96.80;;;;;;6198888;22;45186;-59
2023/10/19 11:21:54;;;;;;;3.28;0.60;;;20.10;96.70;;;;;;6008270;22;45253;-59
2023/10/19 11:24:40;;;;;;;1.20;0.40;;;20.10;96.90;;;;;;6028669;22;46263;-59
2023/10/19 11:27:28;;;;;;;1.23;0.45;;;20.10;96.80;;;;;;6020651;22;45279;-57
2023/10/19 11:30:04;;;;;;;0.40;0.40;;;20.00;96.90;;;;;;6012029;22;45900;-58
2023/10/19 11:32:39;;;;;;;1.38;0.70;;;20.10;97.00;;;;;;6027808;22;45207;-58
2023/10/19 11:35:09;;;;;;;0.43;0.30;;;20.10;97.10;;;;;;6022427;22;47303;-58
2023/10/19 11:38:11;;;;;;;1.77;0.70;;;20.10;97.30;;;;;;6034665;22;45050;-59
2023/10/19 11:40:37;;;;;;;0.63;0.28;;;20.00;97.50;;;;;;6007492;22;45019;-58
2023/10/19 11:43:39;;;;;;;0.68;0.40;;;20.10;97.50;;;;;;6048684;22;44745;-58
2023/10/19 11:49:12;;;;;;;1.25;0.47;;;20.00;97.80;;;;;;6011870;22;45005;-59
2023/10/19 11:51:39;;;;;;;2.25;0.40;;;20.00;97.40;;;;;;6026290;22;44980;-59
2023/10/19 11:54:34;;;;;;;0.65;0.45;;;20.00;96.60;;;;;;6037211;22;45680;-59
2023/10/19 11:57:24;;;;;;;1.60;0.50;;;20.00;96.30;;;;;;6019509;22;46590;-59
2023/10/19 12:02:56;;;;;;;2.10;0.52;;;20.00;97.20;;;;;;6000256;22;45424;-59
2023/10/19 12:05:26;;;;;;;2.33;0.45;;;20.00;97.30;;;;;;6053988;22;45205;-59
2023/10/19 12:08:24;;;;;;;1.45;0.50;;;20.00;97.20;;;;;;6045418;22;46893;-59
2023/10/19 12:10:52;;;;;;;0.70;0.50;;;20.00;97.10;;;;;;6021143;22;45172;-59
2023/10/19 12:13:20;;;;;;;0.90;0.50;;;20.00;97.40;;;;;;6011917;22;45300;-59
2023/10/19 12:16:04;;;;;;;1.95;0.60;;;20.00;97.60;;;;;;6074019;22;44910;-60
2023/10/19 12:18:33;;;;;;;2.35;0.80;;;20.00;98.20;;;;;;6062001;22;45788;-62
2023/10/19 12:21:27;;;;;;;3.30;0.70;;;20.00;97.00;;;;;;6034777;22;45437;-60
2023/10/19 12:23:56;;;;;;;3.28;0.70;;;20.10;97.60;;;;;;6018991;22;45173;-58
2023/10/19 12:26:23;;;;;;;2.22;0.77;;;20.10;98.40;;;;;;6059514;22;45326;-64
2023/10/19 12:29:21;;;;;;;2.67;0.80;;;20.10;98.90;;;;;;6058695;22;45157;-61
2023/10/19 12:31:48;;;;;;;2.75;0.82;;;20.10;99.40;;;;;;6058806;22;45073;-62
2023/10/19 12:34:16;;;;;;;3.28;0.93;;;20.10;99.10;;;;;;6051214;22;45507;-63
2023/10/19 12:36:57;;;;;;;2.83;0.80;;;20.10;99.00;;;;;;6072328;22;45534;-63
2023/10/19 12:39:42;;;;;;;1.95;0.57;;;20.10;99.20;;;;;;6032520;22;46269;-62
2023/10/19 12:42:33;;;;;;;3.20;0.80;;;20.00;99.30;;;;;;6028967;22;45258;-62
2023/10/19 12:45:10;;;;;;;4.28;1.05;;;20.00;99.70;;;;;;6026317;22;45269;-63
2023/10/19 12:53:31;;;;;;;1.58;0.68;;;20.00;99.90;;;;;;6034551;22;45125;-62
2023/10/19 12:56:35;;;;;;;1.40;0.60;;;20.00;99.90;;;;;;6057757;22;45337;-62
2023/10/19 12:59:32;;;;;;;0.85;0.40;;;20.00;99.90;;;;;;6023584;22;45116;-62
2023/10/19 13:02:02;;;;;;;0.85;0.70;;;20.00;99.90;;;;;;5994910;22;45488;-63
2023/10/19 13:04:41;;;;;;;1.08;0.60;;;20.00;99.90;;;;;;6064033;22;45327;-62
2023/10/19 13:11:14;;;;;;;1.20;0.63;;;20.00;99.90;;;;;;6015892;22;45255;-62
2023/10/19 13:13:56;;;;;;;1.42;0.60;;;20.00;99.90;;;;;;5996875;22;45516;-62
2023/10/19 13:16:52;;;;;;;1.13;0.40;;;20.00;99.90;;;;;;6059437;22;45235;-62
2023/10/19 13:19:29;;;;;;;0.77;0.50;;;19.90;99.90;;;;;;6046306;22;45019;-63
2023/10/19 13:22:33;;;;;;;2.03;0.90;;;19.90;99.90;;;;;;6012903;22;45008;-62
2023/10/19 13:25:12;;;;;;;0.77;0.30;;;20.00;99.90;;;;;;6031802;22;47420;-63
2023/10/19 13:27:41;;;;;;;0.82;0.43;;;20.00;99.90;;;;;;6041975;22;45192;-62
2023/10/19 13:30:36;;;;;;;1.23;0.50;;;20.00;99.90;;;;;;6053650;22;45133;-62
2023/10/19 13:33:23;;;;;;;1.00;0.55;;;19.90;99.90;;;;;;6059903;22;45300;-62
2023/10/19 13:36:06;;;;;;;1.90;0.52;;;20.00;99.90;;;;;;6032915;22;45247;-63
2023/10/19 13:38:45;;;;;;;2.50;0.63;;;20.00;99.90;;;;;;6064363;22;45222;-63
2023/10/19 13:41:16;;;;;;;3.83;0.45;;;20.00;99.90;;;;;;6044474;22;45237;-63
2023/10/19 13:44:18;;;;;;;0.75;0.50;;;20.00;99.90;;;;;;6012222;22;45430;-63
2023/10/19 13:47:08;;;;;;;0.93;0.30;;;20.00;99.90;;;;;;6041283;22;46496;-63
2023/10/19 13:49:52;;;;;;;1.45;0.60;;;19.90;99.90;;;;;;6042117;22;45127;-63
2023/10/19 13:52:19;;;;;;;2.33;0.82;;;20.00;99.90;;;;;;6051110;22;45198;-63
2023/10/19 13:58:37;;;;;;;0.93;0.40;;;20.00;99.90;;;;;;6016797;22;45894;-63
2023/10/19 14:01:29;;;;;;;0.70;0.35;;;19.90;99.90;;;;;;6037793;22;45220;-63
2023/10/19 14:04:20;;;;;;;0.77;0.28;;;19.90;99.90;;;;;;6042348;22;45029;-63
2023/10/19 14:07:15;;;;;;;1.60;0.47;;;19.90;99.90;;;;;;6059576;22;45545;-63
2023/10/19 14:10:06;;;;;;;0.47;0.38;;;20.00;99.90;;;;;;6023063;22;46604;-63
2023/10/19 14:12:35;;;;;;;0.68;0.47;;;20.00;99.90;;;;;;6038022;22;45334;-63
2023/10/19 14:15:25;;;;;;;1.00;0.50;;;20.00;99.90;;;;;;6024971;22;45219;-63
2023/10/19 14:18:19;;;;;;;0.93;0.30;;;19.90;99.90;;;;;;6051500;22;45432;-63
2023/10/19 14:21:13;;;;;;;1.42;0.50;;;19.90;99.90;;;;;;6028749;22;46370;-63
2023/10/19 14:23:42;;;;;;;1.52;0.65;;;19.90;99.90;;;;;;6031744;22;45190;-63
2023/10/19 14:26:17;;;;;;;0.88;0.40;;;19.90;99.90;;;;;;6032741;22;45244;-63
2023/10/19 14:29:13;;;;;;;3.92;0.75;;;19.90;99.90;;;;;;6038644;22;45255;-63
2023/10/19 14:31:43;;;;;;;1.02;0.60;;;19.90;99.90;;;;;;6023563;22;46513;-63
2023/10/19 14:37:18;;;;;;;1.08;0.60;;;19.90;99.90;;;;;;6015208;22;45051;-63
2023/10/19 14:40:14;;;;;;;0.47;0.38;;;19.90;99.90;;;;;;6048876;22;45226;-63
2023/10/19 14:46:03;;;;;;;2.17;0.60;;;19.90;99.90;;;;;;6042659;22;45095;-63
2023/10/19 14:48:31;;;;;;;2.45;0.50;;;19.90;99.90;;;;;;6038722;22;45114;-64
2023/10/19 14:50:58;;;;;;;0.65;0.40;;;19.90;99.90;;;;;;6027081;22;45261;-64
2023/10/19 14:53:48;;;;;;;0.77;0.40;;;19.90;99.90;;;;;;6033821;22;47141;-63
2023/10/19 14:56:39;;;;;;;0.90;0.55;;;19.90;99.90;;;;;;6041945;22;45034;-64
2023/10/19 14:59:19;;;;;;;1.23;0.40;;;19.90;99.90;;;;;;6028063;22;45416;-65
2023/10/19 15:02:11;;;;;;;1.40;0.30;;;19.90;99.90;;;;;;6057861;22;45324;-64
2023/10/19 15:34:01;;;;;;;0.50;0.40;;;20.00;99.90;;;;;;5483463;22;12744804;-66
2023/10/19 15:36:28;;;;;;;2.00;0.50;;;20.00;99.90;;;;;;6127249;22;44986;-64
2023/10/19 15:38:55;;;;;;;1.77;0.55;;;20.00;99.90;;;;;;6125198;22;44882;-63
2023/10/19 15:41:36;;;;;;;1.80;0.73;;;20.00;99.90;;;;;;6137711;22;44857;-63
2023/10/19 15:44:03;;;;;;;1.90;0.47;;;20.00;99.90;;;;;;6144890;22;46559;-64
2023/10/19 15:46:33;;;;;;;3.70;0.80;;;20.00;99.90;;;;;;6156627;22;45025;-64
2023/10/19 15:49:03;;;;;;;0.73;0.52;;;20.00;99.90;;;;;;6131600;22;44812;-64
2023/10/19 15:51:30;;;;;;;2.83;0.60;;;20.00;99.90;;;;;;6150149;22;44826;-63
2023/10/19 15:53:57;;;;;;;2.25;0.90;;;20.00;99.90;;;;;;6142971;22;45119;-64
2023/10/19 15:56:27;;;;;;;2.70;0.80;;;20.00;99.90;;;;;;6146600;22;44692;-63
2023/10/19 15:59:08;;;;;;;2.53;0.70;;;20.00;99.90;;;;;;6142980;22;44740;-63
2023/10/19 16:01:48;;;;;;;2.25;0.80;;;19.90;99.90;;;;;;6140343;22;44777;-63
2023/10/19 16:04:23;;;;;;;4.78;0.80;;;20.00;99.90;;;;;;6117965;22;46363;-62
2023/10/19 16:06:50;;;;;;;1.58;0.68;;;20.00;99.90;;;;;;6116986;22;44744;-63
2023/10/19 16:09:21;;;;;;;4.53;0.80;;;20.00;99.90;;;;;;6145593;22;44719;-62
2023/10/19 16:11:51;;;;;;;1.50;0.60;;;20.00;99.90;;;;;;6152057;22;44916;-62
2023/10/19 16:14:20;;;;;;;0.88;0.40;;;20.00;99.90;;;;;;6162089;22;46580;-62